Terminal Aerodrome Forecast
Issued by NWS Portland, OR

Home | Current Version | Previous Version | Text Only | Print | Product List | Glossary On
Versions: 1 2 3 4 5 6 7 8 9 10 11 12 13 14 15 16 17 18 19 20
000
FTUS46 KPQR 292335
TAFAST
TAF
KAST 292335Z 3000/3024 23011KT P6SM BKN015
     FM300400 21005KT P6SM OVC015
     FM301000 16003KT P6SM OVC015
     FM301900 22010KT P6SM OVC050=

USA.gov is the U.S. government's official web portal to all federal, state and local government web resources and services.